Eger, Hungary
Current Conditions -  °F | °C
As of 10:15 PM on Wednesday 26 Nov 2014 (Local Time) from LHSN Reporting Station
Moderate Fog Moderate Fog  
Wind Chill: 26°   Ceiling: 200
Heat Index: 32°   Visibility: 0.37mi
Dew Point: 32°   Wind: 7mph
Humidity: 100%   Direction: 110°ESE
Pressure: 30.24"   Gusts: NA
Location:  47.9°N, 20.38°E
Report Text: LHSN 262015Z 11006KT 0600 FG OVC002 00/M00 Q1024 NOSIG RMK RED
Loading
Personal Weather Stations






























Interactive Weather Map New forecast layout! Learn more

10-Day Weather Forecast

Advertisements
Track Severe Weather on mobile